createdAt,value
2023-06-07T00:01:57.471Z,81.27
2023-06-07T00:06:03.911Z,80.06
2023-06-07T00:10:08.198Z,82.12
2023-06-07T00:14:12.836Z,82.15
2023-06-07T00:18:16.566Z,81.75
2023-06-07T00:22:19.770Z,82.67
2023-06-07T00:26:22.790Z,83.58
2023-06-07T00:30:27.292Z,84.87
2023-06-07T00:34:30.543Z,83.86
2023-06-07T00:38:33.707Z,83.03
2023-06-07T00:42:36.979Z,81.75
2023-06-07T00:46:41.415Z,85.28
2023-06-07T00:50:44.642Z,83.71
2023-06-07T00:54:47.652Z,83.79
2023-06-07T00:58:50.865Z,85.77
2023-06-07T01:02:56.978Z,84.54
2023-06-07T01:07:02.936Z,83.56
2023-06-07T01:11:06.595Z,85.13
2023-06-07T01:15:10.425Z,85.23
2023-06-07T01:19:22.502Z,86.28
2023-06-07T01:23:32.847Z,86.70
2023-06-07T01:27:38.394Z,84.89
2023-06-07T01:31:42.375Z,85.60
2023-06-07T01:35:47.185Z,85.96
2023-06-07T01:39:52.964Z,87.07
2023-06-07T01:43:56.019Z,87.95
2023-06-07T01:47:59.300Z,85.38
2023-06-07T01:52:02.662Z,85.43
2023-06-07T01:56:16.245Z,86.40
2023-06-07T02:00:26.038Z,87.97
2023-06-07T02:04:31.265Z,87.13
2023-06-07T02:08:36.334Z,87.38
2023-06-07T02:12:42.044Z,86.68
2023-06-07T02:16:45.064Z,88.52
2023-06-07T02:20:48.323Z,88.81
2023-06-07T02:24:51.452Z,89.05
2023-06-07T02:28:56.188Z,89.15
2023-06-07T02:32:59.348Z,88.84
2023-06-07T02:37:02.772Z,87.68
2023-06-07T02:41:05.696Z,87.66
2023-06-07T02:45:11.544Z,88.68
2023-06-07T02:49:14.736Z,89.12
2023-06-07T02:53:17.786Z,90.63
2023-06-07T02:57:20.879Z,90.89
2023-06-07T03:01:29.007Z,90.69
2023-06-07T03:05:32.472Z,91.90
2023-06-07T03:09:35.523Z,90.40
2023-06-07T03:13:38.635Z,91.85
2023-06-07T03:17:44.488Z,88.63
2023-06-07T03:21:47.612Z,90.79
2023-06-07T03:25:50.893Z,87.80
2023-06-07T03:29:55.198Z,89.11
2023-06-07T03:33:59.804Z,88.81
2023-06-07T03:38:02.751Z,87.31
2023-06-07T03:42:06.777Z,91.44
2023-06-07T03:46:09.957Z,90.04
2023-06-07T03:50:14.593Z,92.00
2023-06-07T03:54:17.545Z,88.74
2023-06-07T03:58:20.618Z,88.94
2023-06-07T04:02:23.677Z,92.55
2023-06-07T04:06:30.156Z,93.08
2023-06-07T04:10:33.172Z,92.06
2023-06-07T04:14:36.314Z,91.32
2023-06-07T04:18:39.707Z,92.50
2023-06-07T04:22:44.123Z,87.75
2023-06-07T04:26:49.425Z,91.91
2023-06-07T04:30:53.176Z,92.90
2023-06-07T04:34:57.386Z,89.55
2023-06-07T04:39:02.762Z,92.45
2023-06-07T04:43:06.959Z,92.73
2023-06-07T04:47:13.325Z,88.68
2023-06-07T04:51:21.861Z,87.81
2023-06-07T04:55:26.816Z,85.73
2023-06-07T04:59:36.404Z,85.15
2023-06-07T05:04:08.877Z,86.95
2023-06-07T05:08:12.000Z,83.46
2023-06-07T05:12:16.610Z,83.67
2023-06-07T05:16:20.356Z,83.75
2023-06-07T05:20:26.318Z,84.04
2023-06-07T05:24:30.420Z,80.79
2023-06-07T05:28:34.945Z,61.48
2023-06-07T05:32:38.890Z,58.01
2023-06-07T05:36:41.872Z,57.56
2023-06-07T05:40:45.674Z,62.39
2023-06-07T05:44:51.134Z,64.59
2023-06-07T05:48:54.029Z,67.37
2023-06-07T05:52:58.799Z,61.51
2023-06-07T05:57:02.561Z,59.39
2023-06-07T06:01:08.483Z,60.95
2023-06-07T06:05:11.723Z,58.47
2023-06-07T06:09:14.778Z,58.19
2023-06-07T06:13:17.955Z,58.12
2023-06-07T06:17:22.378Z,53.06
2023-06-07T06:21:25.649Z,48.66
2023-06-07T06:25:29.971Z,42.13
2023-06-07T06:29:32.745Z,45.33
2023-06-07T06:33:37.575Z,48.16
2023-06-07T06:37:41.013Z,51.50
2023-06-07T06:41:44.092Z,50.67
2023-06-07T06:45:48.223Z,51.64
2023-06-07T06:49:54.742Z,50.75
2023-06-07T06:53:57.707Z,45.49
2023-06-07T06:58:01.591Z,50.49
2023-06-07T07:02:05.023Z,46.35
2023-06-07T07:06:13.666Z,45.52
2023-06-07T07:10:18.040Z,50.77
2023-06-07T07:14:21.034Z,49.02
2023-06-07T07:18:24.161Z,46.21
2023-06-07T07:22:29.228Z,45.87
2023-06-07T07:26:32.332Z,48.95
2023-06-07T07:30:36.431Z,48.71
2023-06-07T07:34:41.786Z,47.04
2023-06-07T07:38:47.469Z,44.64
2023-06-07T07:42:51.066Z,45.37
2023-06-07T07:46:54.005Z,46.33
2023-06-07T07:50:57.643Z,47.48
2023-06-07T07:55:04.083Z,46.38
2023-06-07T07:59:07.376Z,49.05
2023-06-07T08:03:10.609Z,45.68
2023-06-07T08:07:16.604Z,45.61
2023-06-07T08:11:22.231Z,46.35
2023-06-07T08:15:25.214Z,48.14
2023-06-07T08:19:28.633Z,45.97
2023-06-07T08:23:31.537Z,50.60
2023-06-07T08:27:35.859Z,46.95
2023-06-07T08:31:44.669Z,46.00
2023-06-07T08:35:47.973Z,44.93
2023-06-07T08:39:50.897Z,47.75
2023-06-07T08:43:55.190Z,45.72
2023-06-07T08:47:59.660Z,46.54
2023-06-07T08:52:15.337Z,44.32
2023-06-07T08:56:20.322Z,48.17
2023-06-07T09:00:25.500Z,43.04
2023-06-07T09:04:29.086Z,43.26
2023-06-07T09:08:32.173Z,42.99
2023-06-07T09:12:35.178Z,45.40
2023-06-07T09:16:56.494Z,42.86
2023-06-07T09:20:59.709Z,45.05
2023-06-07T09:25:09.069Z,43.19
2023-06-07T09:29:13.128Z,40.99
2023-06-07T09:33:27.536Z,40.70
2023-06-07T09:37:42.876Z,40.85
2023-06-07T09:41:45.749Z,40.00
2023-06-07T09:45:55.361Z,42.38
2023-06-07T09:50:14.108Z,40.53
2023-06-07T09:54:17.498Z,40.17
2023-06-07T09:58:22.240Z,37.55
2023-06-07T10:02:26.494Z,37.13
2023-06-07T10:06:32.119Z,39.01
2023-06-07T10:10:36.273Z,39.90
2023-06-07T10:14:41.511Z,37.61
2023-06-07T10:18:45.077Z,38.66
2023-06-07T10:22:50.068Z,41.78
2023-06-07T10:26:56.199Z,37.05
2023-06-07T10:31:07.385Z,36.47
2023-06-07T10:35:14.529Z,38.76
2023-06-07T10:39:20.234Z,39.93
2023-06-07T10:43:23.084Z,42.18
2023-06-07T10:47:27.726Z,35.42
2023-06-07T10:52:03.107Z,35.94
2023-06-07T10:56:38.234Z,37.88
2023-06-07T11:00:44.104Z,43.87
2023-06-07T11:04:58.349Z,40.08
2023-06-07T11:09:23.543Z,38.23
2023-06-07T11:13:26.450Z,43.43
2023-06-07T11:17:52.629Z,41.67
2023-06-07T11:22:05.650Z,48.40
2023-06-07T11:26:10.878Z,49.58
2023-06-07T11:30:14.549Z,47.61
2023-06-07T11:34:18.870Z,48.29
2023-06-07T11:38:22.668Z,53.52
2023-06-07T11:42:26.519Z,49.97
2023-06-07T11:46:33.921Z,52.75
2023-06-07T11:50:39.576Z,50.61
2023-06-07T11:54:44.558Z,52.67
2023-06-07T11:59:07.785Z,48.52
2023-06-07T12:03:11.883Z,48.10
2023-06-07T12:07:23.554Z,49.44
2023-06-07T12:11:27.401Z,51.98
2023-06-07T12:15:31.891Z,51.98
2023-06-07T12:19:35.084Z,50.06
2023-06-07T12:23:40.894Z,52.10
2023-06-07T12:27:46.608Z,50.02
2023-06-07T12:31:53.381Z,48.66
2023-06-07T12:35:58.933Z,44.89
2023-06-07T12:40:03.566Z,47.86
2023-06-07T12:44:08.764Z,45.39
2023-06-07T12:48:12.634Z,44.69
2023-06-07T12:52:16.100Z,42.36
2023-06-07T12:56:20.843Z,43.07
2023-06-07T13:00:24.713Z,45.82
2023-06-07T13:04:30.772Z,42.58
2023-06-07T13:08:33.988Z,45.27
2023-06-07T13:12:39.004Z,45.63
2023-06-07T13:16:42.099Z,43.98
2023-06-07T13:20:52.812Z,43.01
2023-06-07T13:24:56.838Z,42.74
2023-06-07T13:29:01.796Z,43.13
2023-06-07T13:33:05.114Z,43.52
2023-06-07T13:37:14.943Z,41.83
2023-06-07T13:41:17.836Z,45.39
2023-06-07T13:45:22.290Z,42.73
2023-06-07T13:49:25.067Z,43.72
2023-06-07T13:53:31.143Z,42.62
2023-06-07T13:57:37.008Z,42.37
2023-06-07T14:01:41.869Z,40.78
2023-06-07T14:05:55.022Z,43.39
2023-06-07T14:09:57.886Z,42.07
2023-06-07T14:14:01.372Z,45.99
2023-06-07T14:18:06.551Z,46.05
2023-06-07T14:22:09.970Z,47.26
2023-06-07T14:26:12.967Z,49.10
2023-06-07T14:30:17.769Z,44.67
2023-06-07T14:34:21.977Z,40.91
2023-06-07T14:38:25.794Z,44.17
2023-06-07T14:42:28.739Z,43.34
2023-06-07T14:46:32.067Z,45.78
2023-06-07T14:50:36.967Z,43.41
2023-06-07T14:54:41.311Z,42.85
2023-06-07T14:58:45.410Z,43.47
2023-06-07T15:02:48.624Z,41.82
2023-06-07T15:06:53.191Z,42.38
2023-06-07T15:10:59.262Z,41.11
2023-06-07T15:15:02.777Z,42.39
2023-06-07T15:19:05.714Z,39.87
2023-06-07T15:23:10.387Z,39.28
2023-06-07T15:27:13.528Z,44.06
2023-06-07T15:31:16.532Z,40.91
2023-06-07T15:35:19.457Z,39.93
2023-06-07T15:39:24.392Z,41.15
2023-06-07T15:43:27.363Z,42.95
2023-06-07T15:47:33.137Z,42.77
2023-06-07T15:51:36.112Z,46.82
2023-06-07T15:55:42.963Z,48.28
2023-06-07T15:59:46.012Z,53.30
2023-06-07T16:03:56.749Z,57.43
2023-06-07T16:08:04.690Z,54.75
2023-06-07T16:12:13.735Z,50.91
2023-06-07T16:16:22.100Z,53.78
2023-06-07T16:20:28.607Z,44.95
2023-06-07T16:24:31.502Z,50.52
2023-06-07T16:28:36.170Z,45.84
2023-06-07T16:32:39.756Z,50.14
2023-06-07T16:36:58.208Z,49.95
2023-06-07T16:41:01.146Z,56.44
2023-06-07T16:45:06.824Z,53.38
2023-06-07T16:49:17.596Z,55.75
2023-06-07T16:53:20.616Z,52.61
2023-06-07T16:57:26.083Z,50.59
2023-06-07T17:01:32.249Z,45.41
2023-06-07T17:05:37.475Z,49.22
2023-06-07T17:09:40.489Z,50.14
2023-06-07T17:13:45.048Z,46.33
2023-06-07T17:17:49.725Z,49.24
2023-06-07T17:21:52.947Z,54.61
2023-06-07T17:25:55.936Z,51.14
2023-06-07T17:30:00.406Z,54.18
2023-06-07T17:34:12.794Z,57.91
2023-06-07T17:38:17.749Z,59.77
2023-06-07T17:42:22.535Z,59.37
2023-06-07T17:46:26.369Z,56.17
2023-06-07T17:50:45.382Z,59.87
2023-06-07T17:54:49.081Z,56.52
2023-06-07T17:58:52.560Z,60.26
2023-06-07T18:02:56.185Z,61.50
2023-06-07T18:07:03.819Z,64.17
2023-06-07T18:11:08.422Z,65.79
2023-06-07T18:15:11.939Z,63.57
2023-06-07T18:19:14.957Z,63.83
2023-06-07T18:23:20.694Z,64.09
2023-06-07T18:27:24.122Z,66.27
2023-06-07T18:31:26.908Z,67.54
2023-06-07T18:35:29.945Z,63.40
2023-06-07T18:39:35.182Z,57.66
2023-06-07T18:43:40.356Z,61.40
2023-06-07T18:47:43.184Z,63.09
2023-06-07T18:51:45.868Z,62.30
2023-06-07T18:55:50.022Z,63.46
2023-06-07T18:59:52.712Z,65.66
2023-06-07T19:03:58.711Z,66.24
2023-06-07T19:08:01.884Z,66.29
2023-06-07T19:12:07.886Z,68.42
2023-06-07T19:16:10.753Z,68.52
2023-06-07T19:20:14.815Z,68.74
2023-06-07T19:24:17.648Z,70.63
2023-06-07T19:28:21.833Z,69.55
2023-06-07T19:32:24.593Z,68.83
2023-06-07T19:36:31.301Z,68.36
2023-06-07T19:40:35.659Z,70.59
2023-06-07T19:44:41.129Z,69.83
2023-06-07T19:48:46.949Z,68.95
2023-06-07T19:52:49.773Z,69.48
2023-06-07T19:56:52.494Z,70.28
2023-06-07T20:00:57.026Z,71.83
2023-06-07T20:05:00.478Z,71.10
2023-06-07T20:09:03.270Z,71.06
2023-06-07T20:13:06.245Z,71.50
2023-06-07T20:17:11.202Z,72.31
2023-06-07T20:21:13.904Z,72.20
2023-06-07T20:25:17.656Z,72.95
2023-06-07T20:29:20.657Z,73.91
2023-06-07T20:33:24.867Z,75.09
2023-06-07T20:37:27.712Z,75.88
2023-06-07T20:41:30.607Z,75.15
2023-06-07T20:45:33.486Z,74.48
2023-06-07T20:49:37.707Z,76.68
2023-06-07T20:53:40.397Z,77.47
2023-06-07T20:57:43.152Z,78.05
2023-06-07T21:01:45.932Z,80.94
2023-06-07T21:05:50.161Z,80.87
2023-06-07T21:09:52.854Z,80.73
2023-06-07T21:13:55.628Z,80.86
2023-06-07T21:17:58.391Z,81.17
2023-06-07T21:22:02.630Z,79.04
2023-06-07T21:26:06.883Z,78.85
2023-06-07T21:30:10.327Z,81.08
2023-06-07T21:34:14.100Z,81.28
2023-06-07T21:38:18.482Z,83.63
2023-06-07T21:42:22.186Z,81.75
2023-06-07T21:46:28.031Z,80.54
2023-06-07T21:50:31.143Z,82.51
2023-06-07T21:54:43.594Z,79.06
2023-06-07T21:58:46.710Z,84.51
2023-06-07T22:02:49.426Z,84.92
2023-06-07T22:06:52.399Z,87.27
2023-06-07T22:10:57.137Z,89.52
2023-06-07T22:15:01.797Z,84.30
2023-06-07T22:19:04.690Z,84.15
2023-06-07T22:23:08.587Z,89.87
2023-06-07T22:27:13.294Z,83.86
2023-06-07T22:31:16.708Z,85.83
2023-06-07T22:35:19.875Z,86.30
2023-06-07T22:39:22.704Z,84.10
2023-06-07T22:43:26.842Z,83.77
2023-06-07T22:47:31.125Z,87.00
2023-06-07T22:51:35.471Z,84.85
2023-06-07T22:55:38.600Z,87.85
2023-06-07T22:59:43.499Z,87.78
2023-06-07T23:03:46.552Z,88.32
2023-06-07T23:07:50.638Z,86.28
2023-06-07T23:11:54.104Z,88.41
2023-06-07T23:15:58.530Z,90.76
2023-06-07T23:20:01.572Z,90.93
2023-06-07T23:24:05.939Z,87.78
2023-06-07T23:28:08.826Z,90.27
2023-06-07T23:32:13.364Z,88.39
2023-06-07T23:36:17.518Z,93.47
2023-06-07T23:40:20.629Z,91.28
2023-06-07T23:44:27.390Z,87.49
2023-06-07T23:48:32.311Z,89.97
2023-06-07T23:52:36.159Z,91.83
2023-06-07T23:56:39.656Z,90.36
